sensor_id;sensor_type;location;lat;lon;timestamp;temperature;humidity
12870;DHT22;6503;48.572;13.460;2022-12-07T00:00:55;3.40;99.90
12870;DHT22;6503;48.572;13.460;2022-12-07T00:03:26;3.40;99.90
12870;DHT22;6503;48.572;13.460;2022-12-07T00:05:52;3.50;99.90
12870;DHT22;6503;48.572;13.460;2022-12-07T00:08:23;3.50;99.90
12870;DHT22;6503;48.572;13.460;2022-12-07T00:10:51;3.50;99.90
12870;DHT22;6503;48.572;13.460;2022-12-07T00:13:20;3.50;99.90
12870;DHT22;6503;48.572;13.460;2022-12-07T00:15:50;3.40;99.90
12870;DHT22;6503;48.572;13.460;2022-12-07T00:18:17;3.40;99.90
12870;DHT22;6503;48.572;13.460;2022-12-07T00:20:44;3.40;99.90
12870;DHT22;6503;48.572;13.460;2022-12-07T00:23:11;3.40;99.90
12870;DHT22;6503;48.572;13.460;2022-12-07T00:25:38;3.40;99.90
12870;DHT22;6503;48.572;13.460;2022-12-07T00:28:06;3.40;99.90
12870;DHT22;6503;48.572;13.460;2022-12-07T00:30:34;3.40;99.90
12870;DHT22;6503;48.572;13.460;2022-12-07T00:33:04;3.40;99.90
12870;DHT22;6503;48.572;13.460;2022-12-07T00:35:33;3.40;99.90
12870;DHT22;6503;48.572;13.460;2022-12-07T00:38:01;3.30;99.90
12870;DHT22;6503;48.572;13.460;2022-12-07T00:40:28;3.30;99.90
12870;DHT22;6503;48.572;13.460;2022-12-07T00:42:55;3.30;99.90
12870;DHT22;6503;48.572;13.460;2022-12-07T00:45:23;3.30;99.90
12870;DHT22;6503;48.572;13.460;2022-12-07T00:47:50;3.40;99.90
12870;DHT22;6503;48.572;13.460;2022-12-07T00:50:19;3.40;99.90
12870;DHT22;6503;48.572;13.460;2022-12-07T00:52:47;3.40;99.90
12870;DHT22;6503;48.572;13.460;2022-12-07T00:55:14;3.40;99.90
12870;DHT22;6503;48.572;13.460;2022-12-07T00:57:43;3.40;99.90
12870;DHT22;6503;48.572;13.460;2022-12-07T01:00:13;3.30;99.90
12870;DHT22;6503;48.572;13.460;2022-12-07T01:02:40;3.30;99.90
12870;DHT22;6503;48.572;13.460;2022-12-07T01:05:08;3.50;99.90
12870;DHT22;6503;48.572;13.460;2022-12-07T01:07:36;3.40;99.90
12870;DHT22;6503;48.572;13.460;2022-12-07T01:10:04;3.40;99.90
12870;DHT22;6503;48.572;13.460;2022-12-07T01:12:33;3.40;99.90
12870;DHT22;6503;48.572;13.460;2022-12-07T01:15:00;3.50;99.90
12870;DHT22;6503;48.572;13.460;2022-12-07T01:17:30;3.50;99.90
12870;DHT22;6503;48.572;13.460;2022-12-07T01:19:58;3.40;99.90
12870;DHT22;6503;48.572;13.460;2022-12-07T01:22:27;3.30;99.90
12870;DHT22;6503;48.572;13.460;2022-12-07T01:24:57;3.40;99.90
12870;DHT22;6503;48.572;13.460;2022-12-07T01:27:25;3.30;99.90
12870;DHT22;6503;48.572;13.460;2022-12-07T01:29:56;3.30;99.90
12870;DHT22;6503;48.572;13.460;2022-12-07T01:32:23;3.40;99.90
12870;DHT22;6503;48.572;13.460;2022-12-07T01:34:50;3.30;99.90
12870;DHT22;6503;48.572;13.460;2022-12-07T01:37:18;3.30;99.90
12870;DHT22;6503;48.572;13.460;2022-12-07T01:39:48;3.30;99.90
12870;DHT22;6503;48.572;13.460;2022-12-07T01:42:17;3.30;99.90
12870;DHT22;6503;48.572;13.460;2022-12-07T01:47:51;3.20;99.90
12870;DHT22;6503;48.572;13.460;2022-12-07T01:50:25;3.20;99.90
12870;DHT22;6503;48.572;13.460;2022-12-07T01:52:56;3.20;99.90
12870;DHT22;6503;48.572;13.460;2022-12-07T01:55:25;3.20;99.90
12870;DHT22;6503;48.572;13.460;2022-12-07T01:57:56;3.30;99.90
12870;DHT22;6503;48.572;13.460;2022-12-07T02:00:23;3.30;99.90
12870;DHT22;6503;48.572;13.460;2022-12-07T02:02:54;3.20;99.90
12870;DHT22;6503;48.572;13.460;2022-12-07T02:05:25;3.30;99.90
12870;DHT22;6503;48.572;13.460;2022-12-07T02:07:55;3.20;99.90
12870;DHT22;6503;48.572;13.460;2022-12-07T02:10:26;3.20;99.90
12870;DHT22;6503;48.572;13.460;2022-12-07T02:12:57;3.20;99.90
12870;DHT22;6503;48.572;13.460;2022-12-07T02:15:28;3.30;99.90
12870;DHT22;6503;48.572;13.460;2022-12-07T02:18:03;3.30;99.90
12870;DHT22;6503;48.572;13.460;2022-12-07T02:20:37;3.30;99.90
12870;DHT22;6503;48.572;13.460;2022-12-07T02:23:40;3.40;99.90
12870;DHT22;6503;48.572;13.460;2022-12-07T02:29:28;3.30;99.90
12870;DHT22;6503;48.572;13.460;2022-12-07T02:32:04;3.30;99.90
12870;DHT22;6503;48.572;13.460;2022-12-07T02:34:39;3.30;99.90
12870;DHT22;6503;48.572;13.460;2022-12-07T02:37:16;3.30;99.90
12870;DHT22;6503;48.572;13.460;2022-12-07T02:39:51;3.30;99.90
12870;DHT22;6503;48.572;13.460;2022-12-07T02:42:28;3.20;99.90
12870;DHT22;6503;48.572;13.460;2022-12-07T02:45:00;3.20;99.90
12870;DHT22;6503;48.572;13.460;2022-12-07T02:47:29;3.20;99.90
12870;DHT22;6503;48.572;13.460;2022-12-07T02:49:59;3.20;99.90
12870;DHT22;6503;48.572;13.460;2022-12-07T02:52:29;3.30;99.90
12870;DHT22;6503;48.572;13.460;2022-12-07T02:54:56;3.30;99.90
12870;DHT22;6503;48.572;13.460;2022-12-07T02:57:46;3.30;99.90
12870;DHT22;6503;48.572;13.460;2022-12-07T03:00:19;3.20;99.90
12870;DHT22;6503;48.572;13.460;2022-12-07T03:02:57;3.10;99.90
12870;DHT22;6503;48.572;13.460;2022-12-07T03:08:19;3.20;99.90
12870;DHT22;6503;48.572;13.460;2022-12-07T03:10:53;3.20;99.90
12870;DHT22;6503;48.572;13.460;2022-12-07T03:13:24;3.10;99.90
12870;DHT22;6503;48.572;13.460;2022-12-07T03:16:02;3.10;99.90
12870;DHT22;6503;48.572;13.460;2022-12-07T03:18:35;3.10;99.90
12870;DHT22;6503;48.572;13.460;2022-12-07T03:21:11;3.10;99.90
12870;DHT22;6503;48.572;13.460;2022-12-07T03:23:44;3.10;99.90
12870;DHT22;6503;48.572;13.460;2022-12-07T03:26:15;3.10;99.90
12870;DHT22;6503;48.572;13.460;2022-12-07T03:28:48;3.10;99.90
12870;DHT22;6503;48.572;13.460;2022-12-07T03:31:28;3.20;99.90
12870;DHT22;6503;48.572;13.460;2022-12-07T03:34:01;3.10;99.90
12870;DHT22;6503;48.572;13.460;2022-12-07T03:46:52;3.30;99.90
12870;DHT22;6503;48.572;13.460;2022-12-07T03:49:28;3.30;99.90
12870;DHT22;6503;48.572;13.460;2022-12-07T03:52:03;3.20;99.90
12870;DHT22;6503;48.572;13.460;2022-12-07T03:54:36;3.20;99.90
12870;DHT22;6503;48.572;13.460;2022-12-07T03:57:06;3.20;99.90
12870;DHT22;6503;48.572;13.460;2022-12-07T03:59:37;3.30;99.90
12870;DHT22;6503;48.572;13.460;2022-12-07T04:02:07;3.20;99.90
12870;DHT22;6503;48.572;13.460;2022-12-07T04:04:35;3.20;99.90
12870;DHT22;6503;48.572;13.460;2022-12-07T04:07:06;3.10;99.90
12870;DHT22;6503;48.572;13.460;2022-12-07T04:09:33;3.20;99.90
12870;DHT22;6503;48.572;13.460;2022-12-07T04:12:01;3.20;99.90
12870;DHT22;6503;48.572;13.460;2022-12-07T04:14:29;3.20;99.90
12870;DHT22;6503;48.572;13.460;2022-12-07T04:16:58;3.20;99.90
12870;DHT22;6503;48.572;13.460;2022-12-07T04:19:30;3.10;99.90
12870;DHT22;6503;48.572;13.460;2022-12-07T04:22:00;3.10;99.90
12870;DHT22;6503;48.572;13.460;2022-12-07T04:24:30;3.20;99.90
12870;DHT22;6503;48.572;13.460;2022-12-07T04:26:57;3.20;99.90
12870;DHT22;6503;48.572;13.460;2022-12-07T04:29:25;3.30;99.90
12870;DHT22;6503;48.572;13.460;2022-12-07T04:31:53;3.30;99.90
12870;DHT22;6503;48.572;13.460;2022-12-07T04:34:20;3.30;99.90
12870;DHT22;6503;48.572;13.460;2022-12-07T04:36:50;3.30;99.90
12870;DHT22;6503;48.572;13.460;2022-12-07T04:39:22;3.30;99.90
12870;DHT22;6503;48.572;13.460;2022-12-07T04:41:50;3.40;99.90
12870;DHT22;6503;48.572;13.460;2022-12-07T04:44:19;3.40;99.90
12870;DHT22;6503;48.572;13.460;2022-12-07T04:46:47;3.30;99.90
12870;DHT22;6503;48.572;13.460;2022-12-07T04:49:15;3.30;99.90
12870;DHT22;6503;48.572;13.460;2022-12-07T04:51:44;3.30;99.90
12870;DHT22;6503;48.572;13.460;2022-12-07T04:54:14;3.40;99.90
12870;DHT22;6503;48.572;13.460;2022-12-07T04:56:45;3.30;99.90
12870;DHT22;6503;48.572;13.460;2022-12-07T04:59:15;3.30;99.90
12870;DHT22;6503;48.572;13.460;2022-12-07T05:01:44;3.30;99.90
12870;DHT22;6503;48.572;13.460;2022-12-07T05:04:20;3.30;99.90
12870;DHT22;6503;48.572;13.460;2022-12-07T05:06:50;3.30;99.90
12870;DHT22;6503;48.572;13.460;2022-12-07T05:09:21;3.30;99.90
12870;DHT22;6503;48.572;13.460;2022-12-07T05:11:49;3.30;99.90
12870;DHT22;6503;48.572;13.460;2022-12-07T05:14:18;3.20;99.90
12870;DHT22;6503;48.572;13.460;2022-12-07T05:16:51;3.40;99.90
12870;DHT22;6503;48.572;13.460;2022-12-07T05:19:19;3.30;99.90
12870;DHT22;6503;48.572;13.460;2022-12-07T05:21:47;3.30;99.90
12870;DHT22;6503;48.572;13.460;2022-12-07T05:24:17;3.30;99.90
12870;DHT22;6503;48.572;13.460;2022-12-07T05:26:45;3.20;99.90
12870;DHT22;6503;48.572;13.460;2022-12-07T05:29:15;3.20;99.90
12870;DHT22;6503;48.572;13.460;2022-12-07T05:31:43;3.20;99.90
12870;DHT22;6503;48.572;13.460;2022-12-07T05:34:12;3.30;99.90
12870;DHT22;6503;48.572;13.460;2022-12-07T05:36:42;3.30;99.90
12870;DHT22;6503;48.572;13.460;2022-12-07T05:39:10;3.30;99.90
12870;DHT22;6503;48.572;13.460;2022-12-07T05:41:43;3.30;99.90
12870;DHT22;6503;48.572;13.460;2022-12-07T05:44:29;3.30;99.90
12870;DHT22;6503;48.572;13.460;2022-12-07T05:46:57;3.30;99.90
12870;DHT22;6503;48.572;13.460;2022-12-07T05:49:25;3.30;99.90
12870;DHT22;6503;48.572;13.460;2022-12-07T05:51:53;3.30;99.90
12870;DHT22;6503;48.572;13.460;2022-12-07T05:54:20;3.30;99.90
12870;DHT22;6503;48.572;13.460;2022-12-07T05:56:50;3.30;99.90
12870;DHT22;6503;48.572;13.460;2022-12-07T05:59:18;3.30;99.90
12870;DHT22;6503;48.572;13.460;2022-12-07T06:01:51;3.30;99.90
12870;DHT22;6503;48.572;13.460;2022-12-07T06:04:22;3.30;99.90
12870;DHT22;6503;48.572;13.460;2022-12-07T06:06:49;3.30;99.90
12870;DHT22;6503;48.572;13.460;2022-12-07T06:09:21;3.30;99.90
12870;DHT22;6503;48.572;13.460;2022-12-07T06:11:50;3.30;99.90
12870;DHT22;6503;48.572;13.460;2022-12-07T06:14:34;3.30;99.90
12870;DHT22;6503;48.572;13.460;2022-12-07T06:17:02;3.30;99.90
12870;DHT22;6503;48.572;13.460;2022-12-07T06:19:30;3.30;99.90
12870;DHT22;6503;48.572;13.460;2022-12-07T06:22:00;3.30;99.90
12870;DHT22;6503;48.572;13.460;2022-12-07T06:24:30;3.30;99.90
12870;DHT22;6503;48.572;13.460;2022-12-07T06:27:00;3.30;99.90
12870;DHT22;6503;48.572;13.460;2022-12-07T06:29:27;3.20;99.90
12870;DHT22;6503;48.572;13.460;2022-12-07T06:31:55;3.30;99.90
12870;DHT22;6503;48.572;13.460;2022-12-07T06:34:23;3.30;99.90
12870;DHT22;6503;48.572;13.460;2022-12-07T06:37:14;3.30;99.90
12870;DHT22;6503;48.572;13.460;2022-12-07T06:39:42;3.30;99.90
12870;DHT22;6503;48.572;13.460;2022-12-07T06:42:12;3.30;99.90
12870;DHT22;6503;48.572;13.460;2022-12-07T06:44:44;3.30;99.90
12870;DHT22;6503;48.572;13.460;2022-12-07T06:47:24;3.40;99.90
12870;DHT22;6503;48.572;13.460;2022-12-07T06:49:52;3.40;99.90
12870;DHT22;6503;48.572;13.460;2022-12-07T06:52:20;3.50;99.90
12870;DHT22;6503;48.572;13.460;2022-12-07T06:54:49;3.50;99.90
12870;DHT22;6503;48.572;13.460;2022-12-07T06:57:19;3.50;99.90
12870;DHT22;6503;48.572;13.460;2022-12-07T06:59:48;3.60;99.90
12870;DHT22;6503;48.572;13.460;2022-12-07T07:02:15;3.50;99.90
12870;DHT22;6503;48.572;13.460;2022-12-07T07:04:43;3.50;99.90
12870;DHT22;6503;48.572;13.460;2022-12-07T07:07:16;3.50;99.90
12870;DHT22;6503;48.572;13.460;2022-12-07T07:09:57;3.40;99.90
12870;DHT22;6503;48.572;13.460;2022-12-07T07:12:26;3.40;99.90
12870;DHT22;6503;48.572;13.460;2022-12-07T07:14:55;3.40;99.90
12870;DHT22;6503;48.572;13.460;2022-12-07T07:17:27;3.40;99.90
12870;DHT22;6503;48.572;13.460;2022-12-07T07:19:55;3.40;99.90
12870;DHT22;6503;48.572;13.460;2022-12-07T07:22:26;3.40;99.90
12870;DHT22;6503;48.572;13.460;2022-12-07T07:24:58;3.40;99.90
12870;DHT22;6503;48.572;13.460;2022-12-07T07:27:33;3.40;99.90
12870;DHT22;6503;48.572;13.460;2022-12-07T07:30:05;3.40;99.90
12870;DHT22;6503;48.572;13.460;2022-12-07T07:32:33;3.40;99.90
12870;DHT22;6503;48.572;13.460;2022-12-07T07:35:05;3.30;99.90
12870;DHT22;6503;48.572;13.460;2022-12-07T07:37:49;3.30;99.90
12870;DHT22;6503;48.572;13.460;2022-12-07T07:40:18;3.20;99.90
12870;DHT22;6503;48.572;13.460;2022-12-07T07:42:57;3.30;99.90
12870;DHT22;6503;48.572;13.460;2022-12-07T07:45:28;3.40;99.90
12870;DHT22;6503;48.572;13.460;2022-12-07T07:47:57;3.40;99.90
12870;DHT22;6503;48.572;13.460;2022-12-07T07:50:25;3.50;99.90
12870;DHT22;6503;48.572;13.460;2022-12-07T07:52:52;3.50;99.90
12870;DHT22;6503;48.572;13.460;2022-12-07T07:55:22;3.50;99.90
12870;DHT22;6503;48.572;13.460;2022-12-07T07:57:49;3.50;99.90
12870;DHT22;6503;48.572;13.460;2022-12-07T08:00:19;3.60;99.90
12870;DHT22;6503;48.572;13.460;2022-12-07T08:02:47;3.50;99.90
12870;DHT22;6503;48.572;13.460;2022-12-07T08:05:16;3.50;99.90
12870;DHT22;6503;48.572;13.460;2022-12-07T08:07:48;3.50;99.90
12870;DHT22;6503;48.572;13.460;2022-12-07T08:10:15;3.50;99.90
12870;DHT22;6503;48.572;13.460;2022-12-07T08:12:43;3.60;99.90
12870;DHT22;6503;48.572;13.460;2022-12-07T08:15:30;3.70;99.90
12870;DHT22;6503;48.572;13.460;2022-12-07T08:18:04;3.80;99.90
12870;DHT22;6503;48.572;13.460;2022-12-07T08:20:33;3.80;99.90
12870;DHT22;6503;48.572;13.460;2022-12-07T08:23:01;3.70;99.90
12870;DHT22;6503;48.572;13.460;2022-12-07T08:25:29;3.70;99.90
12870;DHT22;6503;48.572;13.460;2022-12-07T08:27:57;3.70;99.90
12870;DHT22;6503;48.572;13.460;2022-12-07T08:30:24;3.80;99.90
12870;DHT22;6503;48.572;13.460;2022-12-07T08:32:53;3.90;99.90
12870;DHT22;6503;48.572;13.460;2022-12-07T08:35:26;3.90;99.90
12870;DHT22;6503;48.572;13.460;2022-12-07T08:37:57;4.00;99.90
12870;DHT22;6503;48.572;13.460;2022-12-07T08:40:25;3.90;99.90
12870;DHT22;6503;48.572;13.460;2022-12-07T08:42:55;4.00;99.90
12870;DHT22;6503;48.572;13.460;2022-12-07T08:45:25;4.10;99.90
12870;DHT22;6503;48.572;13.460;2022-12-07T08:48:06;4.10;99.90
12870;DHT22;6503;48.572;13.460;2022-12-07T08:50:37;4.20;99.90
12870;DHT22;6503;48.572;13.460;2022-12-07T08:53:07;4.20;99.90
12870;DHT22;6503;48.572;13.460;2022-12-07T08:55:37;4.40;99.90
12870;DHT22;6503;48.572;13.460;2022-12-07T08:58:12;4.50;99.90
12870;DHT22;6503;48.572;13.460;2022-12-07T09:00:44;4.50;99.90
12870;DHT22;6503;48.572;13.460;2022-12-07T09:03:15;4.50;99.90
12870;DHT22;6503;48.572;13.460;2022-12-07T09:05:44;4.40;99.90
12870;DHT22;6503;48.572;13.460;2022-12-07T09:08:15;4.40;99.90
12870;DHT22;6503;48.572;13.460;2022-12-07T09:10:43;4.30;99.90
12870;DHT22;6503;48.572;13.460;2022-12-07T09:13:11;4.30;99.90
12870;DHT22;6503;48.572;13.460;2022-12-07T09:15:38;4.40;99.90
12870;DHT22;6503;48.572;13.460;2022-12-07T09:18:06;4.50;99.90
12870;DHT22;6503;48.572;13.460;2022-12-07T09:20:36;4.60;99.90
12870;DHT22;6503;48.572;13.460;2022-12-07T09:23:05;4.60;99.90
12870;DHT22;6503;48.572;13.460;2022-12-07T09:25:36;4.70;99.90
12870;DHT22;6503;48.572;13.460;2022-12-07T09:28:04;4.70;99.90
12870;DHT22;6503;48.572;13.460;2022-12-07T09:30:32;4.60;99.90
12870;DHT22;6503;48.572;13.460;2022-12-07T09:33:02;4.50;99.90
12870;DHT22;6503;48.572;13.460;2022-12-07T09:35:30;4.40;99.90
12870;DHT22;6503;48.572;13.460;2022-12-07T09:38:00;4.30;99.90
12870;DHT22;6503;48.572;13.460;2022-12-07T09:40:34;4.30;99.90
12870;DHT22;6503;48.572;13.460;2022-12-07T09:43:03;4.30;99.90
12870;DHT22;6503;48.572;13.460;2022-12-07T09:45:36;4.20;99.90
12870;DHT22;6503;48.572;13.460;2022-12-07T09:48:14;4.20;99.90
12870;DHT22;6503;48.572;13.460;2022-12-07T09:50:53;4.20;99.90
12870;DHT22;6503;48.572;13.460;2022-12-07T09:53:27;4.20;99.90
12870;DHT22;6503;48.572;13.460;2022-12-07T09:55:57;4.10;99.90
12870;DHT22;6503;48.572;13.460;2022-12-07T09:58:26;4.20;99.90
12870;DHT22;6503;48.572;13.460;2022-12-07T10:00:59;4.20;99.90
12870;DHT22;6503;48.572;13.460;2022-12-07T10:03:30;4.20;99.90
12870;DHT22;6503;48.572;13.460;2022-12-07T10:05:58;4.20;99.90
12870;DHT22;6503;48.572;13.460;2022-12-07T10:08:28;4.30;99.90
12870;DHT22;6503;48.572;13.460;2022-12-07T10:11:03;4.40;99.90
12870;DHT22;6503;48.572;13.460;2022-12-07T10:13:38;4.50;99.90
12870;DHT22;6503;48.572;13.460;2022-12-07T10:16:39;4.50;99.90
12870;DHT22;6503;48.572;13.460;2022-12-07T10:19:25;4.50;99.90
12870;DHT22;6503;48.572;13.460;2022-12-07T10:22:04;4.40;99.90
12870;DHT22;6503;48.572;13.460;2022-12-07T10:24:38;4.50;99.90
12870;DHT22;6503;48.572;13.460;2022-12-07T10:27:19;4.60;99.90
12870;DHT22;6503;48.572;13.460;2022-12-07T10:29:49;4.60;99.90
12870;DHT22;6503;48.572;13.460;2022-12-07T10:32:41;4.60;99.90
12870;DHT22;6503;48.572;13.460;2022-12-07T10:35:26;4.60;99.90
12870;DHT22;6503;48.572;13.460;2022-12-07T10:38:18;4.70;99.90
12870;DHT22;6503;48.572;13.460;2022-12-07T10:41:24;4.70;99.90
12870;DHT22;6503;48.572;13.460;2022-12-07T10:43:57;4.70;99.90
12870;DHT22;6503;48.572;13.460;2022-12-07T10:46:50;4.70;99.90
12870;DHT22;6503;48.572;13.460;2022-12-07T10:50:02;4.60;99.90
12870;DHT22;6503;48.572;13.460;2022-12-07T10:55:47;4.60;99.90
12870;DHT22;6503;48.572;13.460;2022-12-07T10:58:38;4.60;99.90
12870;DHT22;6503;48.572;13.460;2022-12-07T11:01:13;4.60;99.90
12870;DHT22;6503;48.572;13.460;2022-12-07T11:03:56;4.60;99.90
12870;DHT22;6503;48.572;13.460;2022-12-07T11:06:32;4.60;99.90
12870;DHT22;6503;48.572;13.460;2022-12-07T11:09:47;4.50;99.90
12870;DHT22;6503;48.572;13.460;2022-12-07T11:12:36;4.50;99.90
12870;DHT22;6503;48.572;13.460;2022-12-07T11:15:26;4.50;99.90
12870;DHT22;6503;48.572;13.460;2022-12-07T11:18:03;4.60;99.90
12870;DHT22;6503;48.572;13.460;2022-12-07T11:20:41;4.60;99.90
12870;DHT22;6503;48.572;13.460;2022-12-07T11:23:21;4.60;99.90
12870;DHT22;6503;48.572;13.460;2022-12-07T11:25:56;4.70;99.90
12870;DHT22;6503;48.572;13.460;2022-12-07T11:28:47;4.80;99.90
12870;DHT22;6503;48.572;13.460;2022-12-07T11:31:37;4.90;99.90
12870;DHT22;6503;48.572;13.460;2022-12-07T11:34:21;4.70;99.90
12870;DHT22;6503;48.572;13.460;2022-12-07T11:36:54;4.80;99.90
12870;DHT22;6503;48.572;13.460;2022-12-07T11:39:28;4.80;99.90
12870;DHT22;6503;48.572;13.460;2022-12-07T11:42:14;4.70;99.90
12870;DHT22;6503;48.572;13.460;2022-12-07T11:44:54;4.80;99.90
12870;DHT22;6503;48.572;13.460;2022-12-07T11:47:36;4.80;99.90
12870;DHT22;6503;48.572;13.460;2022-12-07T11:50:25;4.80;99.90
12870;DHT22;6503;48.572;13.460;2022-12-07T11:53:09;4.90;99.90
12870;DHT22;6503;48.572;13.460;2022-12-07T11:56:13;4.90;99.90
12870;DHT22;6503;48.572;13.460;2022-12-07T11:59:24;5.00;99.90
12870;DHT22;6503;48.572;13.460;2022-12-07T12:02:41;5.00;99.90
12870;DHT22;6503;48.572;13.460;2022-12-07T12:05:17;4.90;99.90
12870;DHT22;6503;48.572;13.460;2022-12-07T12:08:18;5.00;99.90
12870;DHT22;6503;48.572;13.460;2022-12-07T12:11:04;4.80;99.90
12870;DHT22;6503;48.572;13.460;2022-12-07T12:17:15;4.90;99.90
12870;DHT22;6503;48.572;13.460;2022-12-07T12:20:26;5.00;99.90
12870;DHT22;6503;48.572;13.460;2022-12-07T12:23:05;5.10;99.90
12870;DHT22;6503;48.572;13.460;2022-12-07T12:25:47;5.10;99.90
12870;DHT22;6503;48.572;13.460;2022-12-07T12:28:26;5.10;99.90
12870;DHT22;6503;48.572;13.460;2022-12-07T12:31:28;5.20;99.90
12870;DHT22;6503;48.572;13.460;2022-12-07T12:34:38;5.30;99.90
12870;DHT22;6503;48.572;13.460;2022-12-07T12:37:41;5.30;99.90
12870;DHT22;6503;48.572;13.460;2022-12-07T12:40:53;5.20;99.90
12870;DHT22;6503;48.572;13.460;2022-12-07T12:43:59;5.20;99.90
12870;DHT22;6503;48.572;13.460;2022-12-07T12:49:38;5.10;99.90
12870;DHT22;6503;48.572;13.460;2022-12-07T13:02:25;5.10;99.90
12870;DHT22;6503;48.572;13.460;2022-12-07T13:05:18;5.00;99.90
12870;DHT22;6503;48.572;13.460;2022-12-07T13:08:23;5.10;99.90
12870;DHT22;6503;48.572;13.460;2022-12-07T13:11:18;5.10;99.90
12870;DHT22;6503;48.572;13.460;2022-12-07T13:21:01;5.20;99.90
12870;DHT22;6503;48.572;13.460;2022-12-07T13:23:58;5.10;99.90
12870;DHT22;6503;48.572;13.460;2022-12-07T13:26:44;5.10;99.90
12870;DHT22;6503;48.572;13.460;2022-12-07T13:29:17;5.00;99.90
12870;DHT22;6503;48.572;13.460;2022-12-07T13:31:49;5.00;99.90
12870;DHT22;6503;48.572;13.460;2022-12-07T13:34:55;5.00;99.90
12870;DHT22;6503;48.572;13.460;2022-12-07T13:37:50;4.90;99.90
12870;DHT22;6503;48.572;13.460;2022-12-07T13:40:30;4.90;99.90
12870;DHT22;6503;48.572;13.460;2022-12-07T13:46:11;5.00;99.90
12870;DHT22;6503;48.572;13.460;2022-12-07T13:48:48;5.00;99.90
12870;DHT22;6503;48.572;13.460;2022-12-07T13:51:24;5.00;99.90
12870;DHT22;6503;48.572;13.460;2022-12-07T13:53:59;5.00;99.90
12870;DHT22;6503;48.572;13.460;2022-12-07T13:59:36;5.00;99.90
12870;DHT22;6503;48.572;13.460;2022-12-07T14:02:21;5.00;99.90
12870;DHT22;6503;48.572;13.460;2022-12-07T14:04:50;5.00;99.90
12870;DHT22;6503;48.572;13.460;2022-12-07T14:10:53;4.90;99.90
12870;DHT22;6503;48.572;13.460;2022-12-07T14:13:36;4.90;99.90
12870;DHT22;6503;48.572;13.460;2022-12-07T14:16:25;4.90;99.90
12870;DHT22;6503;48.572;13.460;2022-12-07T14:18:59;5.00;99.90
12870;DHT22;6503;48.572;13.460;2022-12-07T14:21:29;4.90;99.90
12870;DHT22;6503;48.572;13.460;2022-12-07T14:24:15;4.90;99.90
12870;DHT22;6503;48.572;13.460;2022-12-07T14:26:48;4.80;99.90
12870;DHT22;6503;48.572;13.460;2022-12-07T14:29:27;4.80;99.90
12870;DHT22;6503;48.572;13.460;2022-12-07T14:32:11;4.70;99.90
12870;DHT22;6503;48.572;13.460;2022-12-07T14:34:58;4.70;99.90
12870;DHT22;6503;48.572;13.460;2022-12-07T14:37:27;4.80;99.90
12870;DHT22;6503;48.572;13.460;2022-12-07T14:40:11;4.80;99.90
12870;DHT22;6503;48.572;13.460;2022-12-07T14:42:51;4.70;99.90
12870;DHT22;6503;48.572;13.460;2022-12-07T14:45:21;4.70;99.90
12870;DHT22;6503;48.572;13.460;2022-12-07T14:47:49;4.70;99.90
12870;DHT22;6503;48.572;13.460;2022-12-07T14:50:22;4.70;99.90
12870;DHT22;6503;48.572;13.460;2022-12-07T14:52:55;4.70;99.90
12870;DHT22;6503;48.572;13.460;2022-12-07T14:55:26;4.70;99.90
12870;DHT22;6503;48.572;13.460;2022-12-07T14:58:21;4.70;99.90
12870;DHT22;6503;48.572;13.460;2022-12-07T15:01:03;4.70;99.90
12870;DHT22;6503;48.572;13.460;2022-12-07T15:03:34;4.70;99.90
12870;DHT22;6503;48.572;13.460;2022-12-07T15:06:18;4.70;99.90
12870;DHT22;6503;48.572;13.460;2022-12-07T15:09:00;4.60;99.90
12870;DHT22;6503;48.572;13.460;2022-12-07T15:11:32;4.60;99.90
12870;DHT22;6503;48.572;13.460;2022-12-07T15:14:07;4.60;99.90
12870;DHT22;6503;48.572;13.460;2022-12-07T15:16:40;4.50;99.90
12870;DHT22;6503;48.572;13.460;2022-12-07T15:19:13;4.50;99.90
12870;DHT22;6503;48.572;13.460;2022-12-07T15:21:52;4.50;99.90
12870;DHT22;6503;48.572;13.460;2022-12-07T15:24:20;4.60;99.90
12870;DHT22;6503;48.572;13.460;2022-12-07T15:26:49;4.50;99.90
12870;DHT22;6503;48.572;13.460;2022-12-07T15:29:20;4.60;99.90
12870;DHT22;6503;48.572;13.460;2022-12-07T15:31:49;4.50;99.90
12870;DHT22;6503;48.572;13.460;2022-12-07T15:34:18;4.50;99.90
12870;DHT22;6503;48.572;13.460;2022-12-07T15:36:58;4.50;99.90
12870;DHT22;6503;48.572;13.460;2022-12-07T15:39:28;4.50;99.90
12870;DHT22;6503;48.572;13.460;2022-12-07T15:41:58;4.40;99.90
12870;DHT22;6503;48.572;13.460;2022-12-07T15:44:30;4.50;99.90
12870;DHT22;6503;48.572;13.460;2022-12-07T15:47:15;4.50;99.90
12870;DHT22;6503;48.572;13.460;2022-12-07T15:49:42;4.50;99.90
12870;DHT22;6503;48.572;13.460;2022-12-07T15:52:10;4.50;99.90
12870;DHT22;6503;48.572;13.460;2022-12-07T15:54:38;4.40;99.90
12870;DHT22;6503;48.572;13.460;2022-12-07T15:57:08;4.50;99.90
12870;DHT22;6503;48.572;13.460;2022-12-07T15:59:41;4.40;99.90
12870;DHT22;6503;48.572;13.460;2022-12-07T16:02:09;4.40;99.90
12870;DHT22;6503;48.572;13.460;2022-12-07T16:04:41;4.30;99.90
12870;DHT22;6503;48.572;13.460;2022-12-07T16:07:08;4.40;99.90
12870;DHT22;6503;48.572;13.460;2022-12-07T16:09:37;4.40;99.90
12870;DHT22;6503;48.572;13.460;2022-12-07T16:12:05;4.40;99.90
12870;DHT22;6503;48.572;13.460;2022-12-07T16:14:33;4.40;99.90
12870;DHT22;6503;48.572;13.460;2022-12-07T16:17:12;4.40;99.90
12870;DHT22;6503;48.572;13.460;2022-12-07T16:19:41;4.40;99.90
12870;DHT22;6503;48.572;13.460;2022-12-07T16:22:10;4.40;99.90
12870;DHT22;6503;48.572;13.460;2022-12-07T16:24:39;4.40;99.90
12870;DHT22;6503;48.572;13.460;2022-12-07T16:27:07;4.40;99.90
12870;DHT22;6503;48.572;13.460;2022-12-07T16:29:35;4.40;99.90
12870;DHT22;6503;48.572;13.460;2022-12-07T16:32:11;4.40;99.90
12870;DHT22;6503;48.572;13.460;2022-12-07T16:34:40;4.40;99.90
12870;DHT22;6503;48.572;13.460;2022-12-07T16:37:08;4.40;99.90
12870;DHT22;6503;48.572;13.460;2022-12-07T16:39:36;4.40;99.90
12870;DHT22;6503;48.572;13.460;2022-12-07T16:42:04;4.40;99.90
12870;DHT22;6503;48.572;13.460;2022-12-07T16:44:45;4.40;99.90
12870;DHT22;6503;48.572;13.460;2022-12-07T16:47:17;4.40;99.90
12870;DHT22;6503;48.572;13.460;2022-12-07T16:49:46;4.40;99.90
12870;DHT22;6503;48.572;13.460;2022-12-07T16:52:15;4.40;99.90
12870;DHT22;6503;48.572;13.460;2022-12-07T16:54:56;4.30;99.90
12870;DHT22;6503;48.572;13.460;2022-12-07T16:57:33;4.30;99.90
12870;DHT22;6503;48.572;13.460;2022-12-07T17:00:05;4.30;99.90
12870;DHT22;6503;48.572;13.460;2022-12-07T17:02:38;4.30;99.90
12870;DHT22;6503;48.572;13.460;2022-12-07T17:05:06;4.30;99.90
12870;DHT22;6503;48.572;13.460;2022-12-07T17:07:34;4.30;99.90
12870;DHT22;6503;48.572;13.460;2022-12-07T17:10:01;4.30;99.90
12870;DHT22;6503;48.572;13.460;2022-12-07T17:12:36;4.20;99.90
12870;DHT22;6503;48.572;13.460;2022-12-07T17:15:04;4.20;99.90
12870;DHT22;6503;48.572;13.460;2022-12-07T17:17:44;4.20;99.90
12870;DHT22;6503;48.572;13.460;2022-12-07T17:20:12;4.20;99.90
12870;DHT22;6503;48.572;13.460;2022-12-07T17:22:43;4.20;99.90
12870;DHT22;6503;48.572;13.460;2022-12-07T17:25:13;4.20;99.90